HSPN

Port Sudan New International Airport

Port Sudan, Sudan
METAR HSPN 160500Z 36008KT 9999 SCT030 24/20 Q1016
Observed Flight Rules
Dec-16 @ 05:00 UTC (51 minutes ago) Visual Flight Rules
Wind Visibility Clouds
360° at 8 knots 10,000+ meters
  • Scattered at 3,000' AGL
Temperatures Readings
Current 24°C / 75°F
Dewpoint 20°C / 68°F
Humidity 78%
Altimeter 30" Hg
Pressure 1016 hPa
Elevation 138
METAR HSPN 160500Z 36008KT 9999 SCT030 24/20 Q1016
Observed Flight Rules
Dec-16 @ 05:00 UTC
(51 minutes ago)
VFR
Wind Visibility
360° at 8 knots 10,000+ meters
Clouds
  • Scattered at 3,000' AGL
Temperature Dewpoint
24°C / 75°F 20°C / 68°F
Humidity Altimeter Pressure
78% 30" Hg 1016 hPa